Airfield :
LOGIN :

Register | Disclaimer

   EN    FR    IT 

 










Legend :    VFR   Marginal VFR   IFR   Intensive IFR   Very Intensive IFR
Visi :
Ceiling :
>= 8 km
>= 3000ft
5 to 8 km
1000 to 3000 ft
1500m to 5 km
500 to 1000 ft
800 to 1500m
200 to 500 ft
< 800m
< 200 ft
Symbols :   Thunderstorms  Fog  Heavy snow  Heavy precipitations  Wind > 20 kt
SIGMETs :     Misc.  Thunderstorms  Icing  Turbulence  Mountain Waves  Volcanic Ashes






- Airport Elevation : 821 ft
- IATA code : LYS


LFLL - Lyon St Exupéry / Satolas

CURRENT METAR :
  • 022200Z AUTO 23004KT CAVOK 20/11 Q1012 BECMG FEW060TCU BKN080

EXPIRED METARs :
  • 022130Z AUTO 00000KT CAVOK 21/11 Q1012 BECMG FEW060TCU BKN080
  • 022100Z AUTO 05003KT CAVOK 22/11 Q1012 BECMG FEW060TCU BKN080
  • 022030Z AUTO 36002KT CAVOK 22/11 Q1012 BECMG FEW060TCU BKN080
  • 022000Z AUTO 02003KT CAVOK 23/11 Q1012 BECMG FEW060TCU BKN080
  • 021930Z AUTO 03004KT CAVOK 24/11 Q1012 BECMG FEW060TCU BKN080

TAF TAF LFLL
Valid from the 02 at 18:00 until the 04 at 00:00 UTC


021700Z 0218/0324 18004KT CAVOK
BECMG 0218/0221 FEW060TCU BKN080
TEMPO 0309/0324 27015G25KT 4000 SHRA BKN060TCU
PROB40
TEMPO 0312/0324 VRB20G35KT 2000 TSRA SCT055CB BKN060
PROB30
TEMPO 0314/0317 1000 TSGR



MET'MAP, your aeronautical weather chart ! - Copyright ORBIFLY December 2007 - Disclaimer

ORBIFLY MET'MAP TEAM :

Programming & Development : Alexandra Zaïnal
Concept & original design : Baudouin d'Aumeries
Assistance for programming : Marc-Olivier Méhu
Technical & hardware support : Manuel Goepfert

Contact : metmap@orbifly.com




SOURCES & CREDITS :

   NOAA